Time;durP1;ratioP1;P1;durP2;ratioP2;P2;SDS_P1;SDS_P2;PMS_P1;PMS_P2;Temp;Humidity;BMP_temperature;BMP_pressure;BME280_temperature;BME280_humidity;BME280_pressure;Samples;Min_cycle;Max_cycle;Signal;HPM_P1;HPM_P2
2022/12/13 00:00:18;;;;;;;12.70;6.57;;;;;;;-2.29;100.00;99936.59;5052277;28;20378;-77
2022/12/13 00:02:45;;;;;;;11.88;6.07;;;;;;;-2.30;100.00;99948.22;5052194;28;20029;-75
2022/12/13 00:05:11;;;;;;;12.65;6.38;;;;;;;-2.36;100.00;99933.88;5052476;28;20351;-76
2022/12/13 00:07:37;;;;;;;11.40;6.28;;;;;;;-2.30;100.00;99945.41;5017800;28;20029;-76
2022/12/13 00:10:03;;;;;;;14.93;7.43;;;;;;;-2.22;100.00;99942.13;5034018;28;20045;-76
2022/12/13 00:12:29;;;;;;;13.38;7.45;;;;;;;-2.24;100.00;99952.13;5067261;28;20025;-76
2022/12/13 00:14:54;;;;;;;14.63;7.10;;;;;;;-2.16;100.00;99939.69;5034107;28;20044;-76
2022/12/13 00:17:20;;;;;;;10.80;6.10;;;;;;;-2.26;100.00;99943.38;5053887;28;20025;-76
2022/12/13 00:19:46;;;;;;;12.57;6.75;;;;;;;-2.38;100.00;99936.28;5054285;28;20104;-77
2022/12/13 00:22:11;;;;;;;11.38;6.28;;;;;;;-2.24;100.00;99932.53;5054357;28;20115;-78
2022/12/13 00:24:37;;;;;;;12.65;6.65;;;;;;;-2.28;100.00;99940.97;5036355;28;20112;-76
2022/12/13 00:27:02;;;;;;;13.60;6.63;;;;;;;-2.20;100.00;99936.13;5054150;28;20111;-76
2022/12/13 00:29:28;;;;;;;15.15;7.07;;;;;;;-2.17;100.00;99946.47;5053873;28;20052;-76
2022/12/13 00:31:53;;;;;;;14.02;6.68;;;;;;;-2.22;100.00;99942.13;5053813;28;20040;-77
2022/12/13 00:34:20;;;;;;;12.93;5.78;;;;;;;-2.13;100.00;99948.03;5035983;28;20032;-76
2022/12/13 00:36:45;;;;;;;14.75;6.70;;;;;;;-2.24;100.00;99933.34;5036105;28;20120;-76
2022/12/13 00:39:12;;;;;;;13.18;7.07;;;;;;;-2.28;100.00;99945.78;5019455;28;20112;-76
2022/12/13 00:41:39;;;;;;;13.38;6.60;;;;;;;-2.40;100.00;99947.09;5036213;28;20036;-77
2022/12/13 00:44:04;;;;;;;15.68;7.13;;;;;;;-2.29;100.00;99950.56;5037342;28;20249;-76
2022/12/13 00:46:30;;;;;;;13.45;7.15;;;;;;;-2.30;100.00;99942.63;5055018;28;20055;-75
2022/12/13 00:48:58;;;;;;;13.52;7.43;;;;;;;-2.35;100.00;99952.25;5035753;28;20051;-75
2022/12/13 00:51:24;;;;;;;14.05;6.80;;;;;;;-2.35;100.00;99945.88;5053529;28;20052;-76
2022/12/13 00:53:50;;;;;;;15.30;7.50;;;;;;;-2.40;100.00;99938.72;5053686;28;20028;-77
2022/12/13 00:56:20;;;;;;;12.57;7.03;;;;;;;-2.36;100.00;99956.25;5019344;28;20436;-76
2022/12/13 00:58:46;;;;;;;12.82;6.78;;;;;;;-2.39;100.00;99948.66;5019293;28;20481;-76
2022/12/13 01:01:13;;;;;;;12.90;6.90;;;;;;;-2.29;100.00;99960.97;5053364;28;20112;-76
2022/12/13 01:03:39;;;;;;;12.73;6.70;;;;;;;-2.32;100.00;99965.41;5035579;28;20478;-75
2022/12/13 01:06:22;;;;;;;12.40;6.50;;;;;;;-2.41;100.00;99953.09;5053589;28;20029;-76
2022/12/13 01:08:47;;;;;;;13.80;6.85;;;;;;;-2.26;100.00;99958.16;5035721;28;20084;-76
2022/12/13 01:11:14;;;;;;;13.88;7.18;;;;;;;-2.35;100.00;99952.25;5035123;28;20493;-76
2022/12/13 01:13:39;;;;;;;15.95;6.90;;;;;;;-2.33;100.00;99958.22;5035386;28;20383;-75
2022/12/13 01:16:07;;;;;;;13.75;6.90;;;;;;;-2.35;100.00;99963.44;5035538;28;20173;-76
2022/12/13 01:18:33;;;;;;;14.45;7.88;;;;;;;-2.51;100.00;99949.19;5035462;28;20382;-76
2022/12/13 01:21:04;;;;;;;13.80;7.07;;;;;;;-2.45;100.00;99948.34;5053316;28;20025;-76
2022/12/13 01:23:30;;;;;;;13.05;6.65;;;;;;;-2.45;100.00;99955.94;5035474;28;20021;-76
2022/12/13 01:25:55;;;;;;;12.38;7.80;;;;;;;-2.42;100.00;99962.69;5035451;28;20464;-76
2022/12/13 01:28:21;;;;;;;15.43;6.78;;;;;;;-2.46;100.00;99962.75;5053028;28;20094;-75
2022/12/13 01:31:01;;;;;;;14.85;7.60;;;;;;;-2.47;100.00;99961.16;5053524;28;20033;-75
2022/12/13 01:33:27;;;;;;;12.50;7.80;;;;;;;-2.52;100.00;99948.41;5053013;28;20103;-75
2022/12/13 01:35:52;;;;;;;12.48;7.28;;;;;;;-2.42;100.00;99959.91;5035231;28;20104;-76
2022/12/13 01:38:18;;;;;;;17.00;8.02;;;;;;;-2.55;100.00;99949.25;5053126;28;20052;-77
2022/12/13 01:40:46;;;;;;;11.77;6.45;;;;;;;-2.52;100.00;99947.59;5052894;28;20017;-76
2022/12/13 01:43:13;;;;;;;13.27;6.88;;;;;;;-2.52;100.00;99944.81;5034552;28;20021;-76
2022/12/13 01:45:38;;;;;;;13.02;6.28;;;;;;;-2.42;100.00;99957.09;5051832;28;20025;-75
2022/12/13 01:48:06;;;;;;;14.20;6.55;;;;;;;-2.46;100.00;99957.94;5055427;28;20025;-75
2022/12/13 01:50:36;;;;;;;12.68;6.50;;;;;;;-2.39;100.00;99959.06;5054709;28;20025;-76
2022/12/13 01:53:06;;;;;;;11.73;6.10;;;;;;;-2.57;100.00;99962.81;5033741;28;20429;-75
2022/12/13 01:55:33;;;;;;;13.77;7.00;;;;;;;-2.56;100.00;99963.63;5035637;28;20025;-76
2022/12/13 01:58:00;;;;;;;9.57;5.90;;;;;;;-2.54;100.00;99966.78;5039035;28;20119;-75
2022/12/13 02:00:26;;;;;;;15.02;6.85;;;;;;;-2.49;100.00;99972.72;5022341;28;20111;-75
2022/12/13 02:02:53;;;;;;;11.93;7.07;;;;;;;-2.48;100.00;99970.72;5056964;28;20060;-76
2022/12/13 02:05:27;;;;;;;14.88;7.28;;;;;;;-2.56;100.00;99970.00;5036623;28;20466;-75
2022/12/13 02:07:52;;;;;;;12.27;6.70;;;;;;;-2.56;100.00;99972.81;5054462;28;20017;-76
2022/12/13 02:10:18;;;;;;;10.93;6.15;;;;;;;-2.52;100.00;99972.78;5054318;28;20033;-75
2022/12/13 02:12:44;;;;;;;13.60;6.75;;;;;;;-2.56;100.00;99966.41;5054398;28;20025;-76
2022/12/13 02:15:12;;;;;;;15.63;6.45;;;;;;;-2.57;100.00;99970.41;5054270;28;20021;-76
2022/12/13 02:17:43;;;;;;;10.82;6.65;;;;;;;-2.56;100.00;99980.41;5069775;28;20048;-75
2022/12/13 02:20:27;;;;;;;9.95;5.72;;;;;;;-2.65;100.00;99977.28;5055866;28;20021;-75
2022/12/13 02:23:20;;;;;;;13.27;6.72;;;;;;;-2.63;100.00;99970.06;5056554;28;20036;-77
2022/12/13 02:25:57;;;;;;;12.65;6.28;;;;;;;-2.69;100.00;99976.53;5056435;28;20136;-76
2022/12/13 02:28:53;;;;;;;13.48;6.65;;;;;;;-2.78;100.00;99968.56;5056323;28;20068;-76
2022/12/13 02:31:29;;;;;;;14.23;6.40;;;;;;;-2.69;100.00;99971.69;5056502;28;20051;-76
2022/12/13 02:34:25;;;;;;;13.20;6.68;;;;;;;-2.65;100.00;99972.50;5038752;28;20052;-76
2022/12/13 02:37:17;;;;;;;11.48;5.82;;;;;;;-2.75;100.00;99973.38;5036315;28;20044;-76
2022/12/13 02:39:57;;;;;;;10.75;6.00;;;;;;;-2.74;100.00;99972.13;5071773;28;20025;-76
2022/12/13 02:42:31;;;;;;;11.73;6.43;;;;;;;-2.77;100.00;99978.56;5055955;28;20147;-76
2022/12/13 02:45:22;;;;;;;12.02;6.18;;;;;;;-2.77;100.00;99966.56;5055717;28;20029;-75
2022/12/13 02:47:51;;;;;;;12.02;5.63;;;;;;;-2.76;100.00;99980.16;5028777;28;20128;-75
2022/12/13 02:50:16;;;;;;;10.27;6.00;;;;;;;-2.82;100.00;99981.00;5037832;28;20478;-75
2022/12/13 02:52:45;;;;;;;13.20;6.82;;;;;;;-2.74;100.00;99988.13;5037856;28;20065;-76
2022/12/13 02:55:13;;;;;;;11.85;5.88;;;;;;;-2.71;100.00;99973.31;5055732;28;20056;-76
2022/12/13 02:57:41;;;;;;;11.48;5.93;;;;;;;-2.75;100.00;99980.94;5055815;28;20434;-76
2022/12/13 03:00:09;;;;;;;12.77;6.40;;;;;;;-2.83;100.00;99979.38;5055529;28;20028;-76
2022/12/13 03:02:44;;;;;;;15.27;6.38;;;;;;;-2.92;100.00;99977.84;5071054;28;20029;-76
2022/12/13 03:08:32;;;;;;;12.70;6.03;;;;;;;-3.01;100.00;99979.53;5054201;28;20529;-76
2022/12/13 03:11:05;;;;;;;12.82;6.25;;;;;;;-3.13;100.00;99974.38;5055644;28;20021;-76
2022/12/13 03:13:40;;;;;;;12.00;6.25;;;;;;;-3.10;100.00;99974.38;5055367;28;20035;-76
2022/12/13 03:16:35;;;;;;;12.02;6.50;;;;;;;-3.16;100.00;99981.59;5055473;28;20062;-76
2022/12/13 03:19:03;;;;;;;11.18;5.57;;;;;;;-3.29;100.00;99971.31;5037337;28;20028;-76
2022/12/13 03:21:29;;;;;;;10.27;5.47;;;;;;;-3.35;100.00;99966.16;5070913;28;20458;-76
2022/12/13 03:23:54;;;;;;;10.95;6.25;;;;;;;-3.36;100.00;99980.50;5055445;28;20040;-76
2022/12/13 03:26:26;;;;;;;9.27;5.50;;;;;;;-3.42;100.00;99976.53;5055184;28;20107;-76
2022/12/13 03:28:52;;;;;;;12.38;5.40;;;;;;;-3.47;100.00;99976.97;5055063;28;20509;-76
2022/12/13 03:31:18;;;;;;;9.73;5.32;;;;;;;-3.58;100.00;99976.22;5055251;28;20056;-76
2022/12/13 03:33:44;;;;;;;10.52;5.10;;;;;;;-3.52;100.00;99983.75;5037375;28;20024;-75
2022/12/13 03:36:10;;;;;;;11.52;6.00;;;;;;;-3.67;100.00;99985.03;5055456;28;20023;-75
2022/12/13 03:38:36;;;;;;;12.00;6.63;;;;;;;-3.75;100.00;99992.63;5037309;28;20382;-75
2022/12/13 03:41:05;;;;;;;11.23;5.90;;;;;;;-3.88;100.00;99988.69;5020658;28;20020;-75
2022/12/13 03:43:31;;;;;;;9.88;5.15;;;;;;;-3.93;100.00;99993.88;5054786;28;20021;-76
2022/12/13 03:45:56;;;;;;;8.30;4.82;;;;;;;-4.07;100.00;99983.53;5037306;28;20032;-76
2022/12/13 03:48:22;;;;;;;10.18;5.70;;;;;;;-4.16;100.00;99983.16;5055052;28;20021;-75
2022/12/13 03:50:47;;;;;;;10.75;5.15;;;;;;;-4.26;100.00;99978.38;5054597;28;20020;-75
2022/12/13 03:53:13;;;;;;;10.45;4.95;;;;;;;-4.24;100.00;99992.75;5037379;28;20113;-76
2022/12/13 03:55:38;;;;;;;10.43;5.53;;;;;;;-4.32;100.00;99989.16;5054692;28;20039;-75
2022/12/13 03:58:04;;;;;;;10.30;5.47;;;;;;;-4.30;100.00;99992.34;5054642;28;20036;-77
2022/12/13 04:00:29;;;;;;;12.85;5.22;;;;;;;-4.45;100.00;99987.16;5054425;28;20029;-76
2022/12/13 04:02:55;;;;;;;8.60;5.13;;;;;;;-4.49;100.00;99992.75;5036445;28;20070;-75
2022/12/13 04:05:20;;;;;;;12.15;5.65;;;;;;;-4.57;100.00;99973.66;5036687;28;20078;-75
2022/12/13 04:07:47;;;;;;;9.27;5.35;;;;;;;-4.54;100.00;99979.22;5036478;28;20385;-75
2022/12/13 04:10:12;;;;;;;10.55;5.68;;;;;;;-4.46;100.00;99988.34;5054190;28;20021;-75
2022/12/13 04:15:21;;;;;;;9.77;5.80;;;;;;;-4.56;100.00;99997.50;5054778;28;20099;-76
2022/12/13 04:17:47;;;;;;;12.15;5.93;;;;;;;-4.65;100.00;99997.91;5054382;28;20056;-76
2022/12/13 04:20:12;;;;;;;13.48;5.60;;;;;;;-4.77;100.00;99993.56;5053802;28;20075;-76
2022/12/13 04:22:38;;;;;;;10.57;6.32;;;;;;;-4.71;100.00;100002.28;5054182;28;20013;-76
2022/12/13 04:25:03;;;;;;;16.73;6.80;;;;;;;-4.65;100.00;100000.72;5054223;28;20025;-76
2022/12/13 04:27:29;;;;;;;11.75;6.95;;;;;;;-4.53;100.00;100002.31;5069481;28;20393;-74
2022/12/13 04:29:55;;;;;;;9.93;5.95;;;;;;;-4.41;100.00;100004.69;5054192;28;20037;-76
2022/12/13 04:32:20;;;;;;;12.25;5.80;;;;;;;-4.42;100.00;100005.91;5053955;28;20378;-76
2022/12/13 04:34:46;;;;;;;10.15;5.43;;;;;;;-4.31;100.00;99999.09;5054042;28;20021;-77
2022/12/13 04:37:11;;;;;;;10.40;5.88;;;;;;;-4.32;100.00;99983.56;5054267;28;20024;-76
2022/12/13 04:39:37;;;;;;;11.20;6.03;;;;;;;-4.14;100.00;99999.50;5053818;28;20024;-76
2022/12/13 04:42:03;;;;;;;14.20;6.70;;;;;;;-3.99;100.00;99995.50;5035902;28;20025;-77
2022/12/13 04:44:28;;;;;;;9.65;6.10;;;;;;;-3.91;100.00;99997.84;5036184;28;20477;-76
2022/12/13 04:46:54;;;;;;;12.77;6.45;;;;;;;-3.86;100.00;99997.44;5035949;28;20075;-79
2022/12/13 04:49:19;;;;;;;11.15;6.53;;;;;;;-3.79;100.00;99988.25;5053719;28;20159;-77
2022/12/13 04:51:44;;;;;;;10.93;6.93;;;;;;;-3.77;100.00;99999.81;5053596;28;20017;-78
2022/12/13 04:54:10;;;;;;;12.95;6.47;;;;;;;-3.75;100.00;99997.41;5053939;28;20021;-76
2022/12/13 04:56:36;;;;;;;15.90;7.72;;;;;;;-3.69;100.00;99995.81;5053377;28;20090;-76
2022/12/13 04:59:02;;;;;;;16.67;9.00;;;;;;;-3.64;100.00;99989.00;5054012;28;20031;-75
2022/12/13 05:01:27;;;;;;;16.70;8.48;;;;;;;-3.57;100.00;99995.34;5035709;28;20044;-75
2022/12/13 05:03:52;;;;;;;12.40;7.00;;;;;;;-3.41;100.00;99998.50;5035538;28;20462;-75
2022/12/13 05:06:18;;;;;;;12.52;7.38;;;;;;;-3.35;100.00;99996.88;5053555;28;20350;-74
2022/12/13 05:08:43;;;;;;;11.82;6.57;;;;;;;-3.32;100.00;99989.66;5053151;28;20076;-77
2022/12/13 05:11:10;;;;;;;13.88;7.50;;;;;;;-3.29;100.00;99993.66;5035494;28;20086;-76
2022/12/13 05:13:36;;;;;;;15.10;8.02;;;;;;;-3.23;100.00;99994.81;5053294;28;20057;-76
2022/12/13 05:16:04;;;;;;;13.77;7.05;;;;;;;-3.22;100.00;99985.22;5035381;28;20039;-76
2022/12/13 05:18:30;;;;;;;16.65;7.65;;;;;;;-3.15;100.00;99994.38;5035710;28;20449;-76
2022/12/13 05:21:00;;;;;;;20.35;8.60;;;;;;;-3.28;100.00;99982.06;5053192;28;20037;-75
2022/12/13 05:23:25;;;;;;;17.17;9.07;;;;;;;-3.18;100.00;99989.59;5018871;28;20127;-77
2022/12/13 05:25:51;;;;;;;18.98;9.25;;;;;;;-3.16;100.00;99995.56;5035399;28;20076;-76
2022/12/13 05:28:18;;;;;;;20.65;10.18;;;;;;;-3.05;100.00;99995.50;5035108;28;20049;-75
2022/12/13 05:30:43;;;;;;;17.33;8.80;;;;;;;-3.05;100.00;100004.69;5035714;28;20032;-76
2022/12/13 05:33:10;;;;;;;13.27;7.80;;;;;;;-3.00;100.00;99995.88;5022324;28;20037;-76
2022/12/13 05:35:36;;;;;;;15.93;8.85;;;;;;;-2.93;100.00;99990.25;5039715;28;20390;-76
2022/12/13 05:38:02;;;;;;;17.50;9.90;;;;;;;-2.87;100.00;99999.00;5022704;28;20063;-77
2022/12/13 05:40:30;;;;;;;17.52;7.82;;;;;;;-2.91;100.00;99989.84;5039386;28;20525;-77
2022/12/13 05:42:57;;;;;;;18.80;9.02;;;;;;;-2.95;100.00;99991.88;5022645;28;20067;-77
2022/12/13 05:45:22;;;;;;;15.75;7.82;;;;;;;-2.94;100.00;99991.44;5039351;28;20028;-76
2022/12/13 05:47:48;;;;;;;19.17;9.35;;;;;;;-2.88;100.00;99995.41;5039674;28;20031;-75
2022/12/13 05:50:15;;;;;;;16.52;9.05;;;;;;;-2.83;100.00;99996.97;5039365;28;20029;-75
2022/12/13 05:52:43;;;;;;;17.73;8.30;;;;;;;-2.74;100.00;100008.47;5039201;28;20045;-75
2022/12/13 05:55:10;;;;;;;21.48;9.65;;;;;;;-2.77;100.00;100003.72;5039429;28;20098;-76
2022/12/13 05:57:36;;;;;;;20.02;8.93;;;;;;;-2.72;100.00;99999.69;5024151;28;20033;-76
2022/12/13 06:00:07;;;;;;;18.48;9.48;;;;;;;-2.74;100.00;100002.13;5041657;28;20076;-76
2022/12/13 06:02:41;;;;;;;18.80;9.88;;;;;;;-2.77;100.00;100003.72;5056984;28;20367;-75
2022/12/13 06:05:09;;;;;;;20.77;10.07;;;;;;;-2.75;100.00;100001.31;5038952;28;20391;-76
2022/12/13 06:07:35;;;;;;;21.17;10.45;;;;;;;-2.70;100.00;100011.28;5039468;28;20102;-76
2022/12/13 06:10:05;;;;;;;26.77;11.18;;;;;;;-2.71;100.00;100007.69;5072210;28;20182;-75
2022/12/13 06:12:34;;;;;;;28.27;11.32;;;;;;;-2.79;100.00;100005.34;5057084;28;20029;-76
2022/12/13 06:15:01;;;;;;;18.02;9.48;;;;;;;-2.83;100.00;99996.16;5022508;28;20394;-78
2022/12/13 06:17:32;;;;;;;20.77;10.52;;;;;;;-2.89;100.00;99999.38;5038711;28;20036;-76
2022/12/13 06:20:12;;;;;;;20.70;9.57;;;;;;;-2.92;100.00;99994.63;5053391;28;20104;-77
2022/12/13 06:22:38;;;;;;;17.88;9.65;;;;;;;-2.78;100.00;100001.31;5056867;28;20051;-76
2022/12/13 06:25:08;;;;;;;20.13;9.75;;;;;;;-2.73;100.00;100009.28;5056955;28;20470;-77
2022/12/13 06:27:33;;;;;;;22.40;10.73;;;;;;;-2.76;100.00;99999.72;5037824;28;20059;-74
2022/12/13 06:30:03;;;;;;;23.30;10.93;;;;;;;-2.74;100.00;100008.47;5055305;28;20024;-75
2022/12/13 06:32:28;;;;;;;21.17;10.52;;;;;;;-2.73;100.00;100010.06;5054992;28;20031;-72
2022/12/13 06:34:57;;;;;;;16.13;8.82;;;;;;;-2.75;100.00;100004.13;5055776;28;20103;-74
2022/12/13 06:37:23;;;;;;;20.50;9.73;;;;;;;-2.72;100.00;100014.47;5054734;28;20474;-75
2022/12/13 06:39:48;;;;;;;21.15;10.55;;;;;;;-2.69;100.00;100018.47;5047066;28;20057;-74
2022/12/13 06:42:16;;;;;;;21.80;9.38;;;;;;;-2.71;100.00;100021.66;5037004;28;20079;-75
2022/12/13 06:44:42;;;;;;;21.73;10.80;;;;;;;-2.65;100.00;100022.81;5055991;28;20029;-74
2022/12/13 06:47:07;;;;;;;18.90;9.13;;;;;;;-2.67;100.00;100030.81;5055941;28;20109;-75
2022/12/13 06:49:33;;;;;;;16.02;9.00;;;;;;;-2.64;100.00;100029.22;5053750;28;20470;-74
2022/12/13 06:51:58;;;;;;;18.52;8.60;;;;;;;-2.71;100.00;100030.03;5053840;28;20075;-74
2022/12/13 06:54:24;;;;;;;16.63;7.63;;;;;;;-2.74;100.00;100021.69;5053664;28;20025;-73
2022/12/13 06:56:49;;;;;;;18.48;9.07;;;;;;;-2.75;100.00;100032.06;5053583;28;20049;-74
2022/12/13 06:59:14;;;;;;;17.98;7.75;;;;;;;-2.65;100.00;100030.41;5053292;28;20021;-75
2022/12/13 07:01:40;;;;;;;17.52;8.80;;;;;;;-2.84;100.00;100014.97;5053485;28;20374;-73
2022/12/13 07:04:07;;;;;;;18.83;9.82;;;;;;;-2.71;100.00;100035.63;5037092;28;20089;-75
2022/12/13 07:06:33;;;;;;;24.60;10.48;;;;;;;-2.72;100.00;100042.41;5055770;28;20118;-73
2022/12/13 07:08:58;;;;;;;19.50;9.45;;;;;;;-2.72;100.00;100044.41;5055186;28;20485;-74
2022/12/13 07:11:29;;;;;;;18.95;9.23;;;;;;;-2.75;100.00;100040.47;5037769;28;20111;-73
2022/12/13 07:13:55;;;;;;;18.13;9.53;;;;;;;-2.76;100.00;100043.66;5055191;28;20497;-74
2022/12/13 07:16:22;;;;;;;20.70;10.27;;;;;;;-2.76;100.00;100043.66;5037408;28;20017;-74
2022/12/13 07:18:58;;;;;;;19.92;9.60;;;;;;;-2.77;100.00;100051.25;5055422;28;20025;-73
2022/12/13 07:21:25;;;;;;;20.60;10.38;;;;;;;-2.88;100.00;100054.09;5021214;28;20470;-73
2022/12/13 07:23:53;;;;;;;18.20;9.45;;;;;;;-2.86;100.00;100048.09;5071037;28;20079;-72
2022/12/13 07:26:21;;;;;;;22.52;10.85;;;;;;;-2.87;100.00;100052.91;5055543;28;20025;-73
2022/12/13 07:28:48;;;;;;;19.55;9.52;;;;;;;-2.84;100.00;100050.50;5055438;28;20043;-74
2022/12/13 07:31:15;;;;;;;20.60;10.65;;;;;;;-2.89;100.00;100052.50;5018636;28;20048;-74
2022/12/13 07:33:41;;;;;;;19.85;11.27;;;;;;;-2.66;100.00;100051.19;5035519;28;20052;-70
2022/12/13 07:36:11;;;;;;;25.85;11.57;;;;;;;-2.64;100.00;100048.78;5017864;28;20470;-73
2022/12/13 07:38:38;;;;;;;25.85;10.73;;;;;;;-2.54;100.00;100050.69;5018367;28;20048;-73
2022/12/13 07:41:04;;;;;;;25.15;9.85;;;;;;;-2.37;100.00;100060.16;5018048;28;20041;-73
2022/12/13 07:43:34;;;;;;;20.98;9.60;;;;;;;-2.25;100.00;100057.69;5017598;28;20033;-71
2022/12/13 07:46:04;;;;;;;18.65;9.05;;;;;;;-2.24;100.00;100053.66;5035035;28;20029;-73
2022/12/13 07:48:30;;;;;;;23.13;10.98;;;;;;;-2.20;100.00;100054.41;5017443;28;20034;-72
2022/12/13 07:51:01;;;;;;;23.48;10.20;;;;;;;-2.19;100.00;100050.41;5017662;28;20475;-75
2022/12/13 07:53:28;;;;;;;15.75;8.63;;;;;;;-2.17;100.00;100055.59;5034479;28;20429;-74
2022/12/13 07:55:54;;;;;;;18.65;8.90;;;;;;;-2.18;100.00;100057.59;5034886;28;20486;-73
2022/12/13 07:58:22;;;;;;;20.70;10.13;;;;;;;-2.00;100.00;100063.84;5000319;28;20398;-74
2022/12/13 08:00:48;;;;;;;27.13;11.55;;;;;;;-2.10;100.00;100053.53;5035412;28;20048;-72
2022/12/13 08:03:14;;;;;;;23.77;10.65;;;;;;;-2.00;100.00;100049.84;5035081;28;20403;-79
2022/12/13 08:05:41;;;;;;;21.63;9.93;;;;;;;-1.99;100.00;100047.84;5017749;28;20466;-79
2022/12/13 08:08:10;;;;;;;19.95;10.50;;;;;;;-1.96;100.00;100052.63;5017154;28;20041;-75
2022/12/13 08:10:36;;;;;;;19.33;9.85;;;;;;;-1.84;100.00;100052.09;5034108;28;20565;-75
2022/12/13 08:13:02;;;;;;;17.67;9.15;;;;;;;-1.82;100.00;100046.91;5016820;28;20176;-76
2022/12/13 08:15:28;;;;;;;19.38;8.77;;;;;;;-1.82;100.00;100048.91;5017301;28;20044;-75
2022/12/13 08:17:56;;;;;;;15.43;8.27;;;;;;;-1.79;100.00;100048.84;5034691;28;20179;-75
2022/12/13 08:20:22;;;;;;;18.90;8.63;;;;;;;-1.71;100.00;100049.59;5017386;28;20030;-77
2022/12/13 08:22:58;;;;;;;16.67;7.55;;;;;;;-1.70;100.00;100048.38;5034062;28;20040;-78
2022/12/13 08:25:25;;;;;;;22.05;8.23;;;;;;;-1.76;100.00;100050.03;4985041;28;20364;-79
2022/12/13 08:27:52;;;;;;;16.67;7.78;;;;;;;-1.80;100.00;100049.28;5017759;28;20389;-79
2022/12/13 08:30:18;;;;;;;17.20;8.25;;;;;;;-1.83;100.00;100055.69;5002000;28;20033;-76
2022/12/13 08:32:43;;;;;;;15.05;7.85;;;;;;;-1.85;100.00;100058.13;5036582;28;20434;-78
2022/12/13 08:35:09;;;;;;;17.17;8.10;;;;;;;-1.75;100.00;100055.22;5036387;28;20029;-76
2022/12/13 08:37:35;;;;;;;14.45;7.28;;;;;;;-1.74;100.00;100062.41;5034223;28;20156;-73
2022/12/13 08:40:02;;;;;;;18.73;7.63;;;;;;;-1.81;100.00;100056.09;5016717;28;20045;-73
2022/12/13 08:42:29;;;;;;;14.48;8.18;;;;;;;-1.81;100.00;100056.91;5000582;28;20429;-73
2022/12/13 08:44:55;;;;;;;17.02;7.68;;;;;;;-1.79;100.00;100060.06;5016991;28;20049;-74
2022/12/13 08:47:23;;;;;;;12.10;6.85;;;;;;;-1.77;100.00;100062.44;5034067;28;20029;-74
2022/12/13 08:49:50;;;;;;;12.60;6.75;;;;;;;-1.81;100.00;100048.50;5008584;28;20084;-73
2022/12/13 08:52:16;;;;;;;14.80;7.90;;;;;;;-1.93;100.00;100051.00;4999611;28;20045;-73
2022/12/13 08:54:43;;;;;;;17.88;8.25;;;;;;;-2.06;100.00;100059.13;5033122;28;20049;-73
2022/12/13 08:57:14;;;;;;;15.98;8.70;;;;;;;-1.97;100.00;100067.03;5034513;28;20030;-73
2022/12/13 08:59:40;;;;;;;12.50;7.43;;;;;;;-1.81;100.00;100068.09;5016194;28;20367;-74
2022/12/13 09:02:11;;;;;;;15.77;8.20;;;;;;;-1.65;100.00;100070.31;5000084;28;20038;-76
2022/12/13 09:04:36;;;;;;;16.67;7.25;;;;;;;-1.46;100.00;100069.75;5016145;28;20110;-76
2022/12/13 09:07:03;;;;;;;14.10;7.97;;;;;;;-1.41;100.00;100069.28;5034976;28;20110;-76
2022/12/13 09:09:30;;;;;;;16.40;8.68;;;;;;;-1.46;100.00;100074.53;5034266;28;20049;-75
2022/12/13 09:11:57;;;;;;;16.85;8.88;;;;;;;-1.42;100.00;100073.28;5034096;28;20430;-75
2022/12/13 09:14:23;;;;;;;12.98;6.75;;;;;;;-1.34;100.00;100060.78;5013880;28;20042;-78
2022/12/13 09:16:49;;;;;;;14.43;7.63;;;;;;;-1.33;100.00;100070.78;5034175;28;20435;-75
2022/12/13 09:19:14;;;;;;;16.50;7.68;;;;;;;-1.32;100.00;100072.38;5033794;28;20493;-77
2022/12/13 09:21:41;;;;;;;11.77;7.20;;;;;;;-1.24;100.00;100078.69;5032663;28;20033;-77
2022/12/13 09:24:08;;;;;;;14.40;8.15;;;;;;;-1.23;100.00;100077.47;5033523;28;20026;-75
2022/12/13 09:26:35;;;;;;;13.18;6.80;;;;;;;-1.10;100.00;100074.91;5033178;28;20065;-74
2022/12/13 09:29:00;;;;;;;11.32;6.50;;;;;;;-1.21;100.00;100077.88;5013553;28;20456;-77
2022/12/13 09:31:25;;;;;;;12.45;7.05;;;;;;;-1.35;100.00;100073.19;5015382;28;20026;-74
2022/12/13 09:33:52;;;;;;;11.30;6.20;;;;;;;-1.35;100.00;100073.19;4999017;28;20120;-73
2022/12/13 09:36:26;;;;;;;11.63;6.43;;;;;;;-1.35;100.00;100073.19;5015953;28;20030;-75
2022/12/13 09:38:52;;;;;;;12.27;6.38;;;;;;;-1.37;100.00;100075.63;4999000;28;20494;-73
2022/12/13 09:41:31;;;;;;;14.75;6.30;;;;;;;-1.32;100.00;100077.19;5015395;28;20061;-73
2022/12/13 09:44:10;;;;;;;13.90;6.57;;;;;;;-1.37;100.00;100080.44;5033070;28;20474;-73
2022/12/13 09:46:41;;;;;;;15.93;7.28;;;;;;;-1.45;100.00;100079.72;5033342;28;20022;-75
2022/12/13 09:49:15;;;;;;;11.20;6.00;;;;;;;-1.48;100.00;100074.16;4998587;28;20254;-75
2022/12/13 09:51:51;;;;;;;13.43;5.88;;;;;;;-1.54;100.00;100071.00;5015639;28;20025;-75
2022/12/13 09:54:22;;;;;;;16.90;6.75;;;;;;;-1.61;100.00;100060.69;5015536;28;20067;-75
2022/12/13 09:56:49;;;;;;;14.43;6.32;;;;;;;-1.57;100.00;100066.25;4999265;28;20237;-75
2022/12/13 09:59:20;;;;;;;11.82;6.03;;;;;;;-1.62;100.00;100067.50;5033051;28;20014;-75
2022/12/13 10:01:46;;;;;;;;;;;;;;;-1.53;100.00;100069.81;5014550;28;20108;-74
2022/12/13 10:04:14;;;;;;;11.65;5.50;;;;;;;-1.50;100.00;100068.16;5013769;28;19994;-75
2022/12/13 10:06:39;;;;;;;14.25;6.95;;;;;;;-1.35;100.00;100072.41;5018185;28;20033;-77
2022/12/13 10:09:08;;;;;;;12.82;6.00;;;;;;;-1.40;100.00;100062.44;5032287;28;20482;-75
2022/12/13 10:11:34;;;;;;;14.93;6.45;;;;;;;-1.23;100.00;100071.88;5013667;28;20025;-75
2022/12/13 10:14:11;;;;;;;12.13;6.45;;;;;;;-1.10;100.00;100074.91;5030580;28;20021;-74
2022/12/13 10:16:36;;;;;;;12.95;6.70;;;;;;;-1.18;100.00;100079.81;5015467;28;20510;-75
2022/12/13 10:19:13;;;;;;;9.75;5.95;;;;;;;-1.02;100.00;100087.66;5037229;28;20048;-75
2022/12/13 10:21:42;;;;;;;11.20;5.22;;;;;;;-1.02;100.00;100070.81;5018970;28;20034;-74
2022/12/13 10:24:20;;;;;;;11.43;5.55;;;;;;;-1.07;100.00;100072.09;5018842;28;20032;-75
2022/12/13 10:26:46;;;;;;;11.95;5.60;;;;;;;-1.22;100.00;100062.25;5036902;28;20435;-77
2022/12/13 10:29:12;;;;;;;10.32;5.72;;;;;;;-1.30;100.00;100061.53;5036946;28;20026;-75
2022/12/13 10:31:39;;;;;;;18.70;6.72;;;;;;;-1.38;100.00;100073.25;5036799;28;20026;-74
2022/12/13 10:34:05;;;;;;;11.02;5.88;;;;;;;-1.46;100.00;100064.13;5019049;28;20025;-75
2022/12/13 10:36:32;;;;;;;11.02;5.50;;;;;;;-1.30;100.00;100069.13;5019063;28;20025;-75
2022/12/13 10:38:58;;;;;;;12.30;5.50;;;;;;;-1.26;100.00;100067.88;5036785;28;20097;-75
2022/12/13 10:41:28;;;;;;;12.55;5.60;;;;;;;-1.25;100.00;100077.88;5002334;28;20160;-75
2022/12/13 10:44:26;;;;;;;11.32;5.95;;;;;;;-1.15;100.00;100062.94;5002535;28;20521;-74
2022/12/13 10:46:58;;;;;;;12.50;5.88;;;;;;;-1.29;100.00;100073.53;4986721;28;20041;-75
2022/12/13 10:49:34;;;;;;;11.27;6.28;;;;;;;-1.49;100.00;100073.34;5036110;28;20064;-74
2022/12/13 10:52:00;;;;;;;12.82;6.28;;;;;;;-1.54;100.00;100071.00;5018512;28;20497;-75
2022/12/13 10:54:31;;;;;;;11.15;5.32;;;;;;;-1.44;100.00;100063.69;5001825;28;20471;-75
2022/12/13 10:56:59;;;;;;;12.40;6.68;;;;;;;-1.43;100.00;100062.50;5035738;28;20026;-75
2022/12/13 10:59:37;;;;;;;12.75;6.55;;;;;;;-1.18;100.00;100061.00;5036126;28;20025;-75
2022/12/13 11:02:27;;;;;;;14.73;5.60;;;;;;;-0.77;100.00;100058.03;5035666;28;20021;-75
2022/12/13 11:04:53;;;;;;;12.68;6.10;;;;;;;-0.50;100.00;100058.06;5035897;28;20017;-74
2022/12/13 11:07:33;;;;;;;11.70;6.03;;;;;;;-0.04;100.00;100051.72;5018336;28;20079;-76
2022/12/13 11:10:34;;;;;;;10.88;6.47;;;;;;;0.11;100.00;100055.88;5035432;28;20041;-75
2022/12/13 11:13:04;;;;;;;13.40;6.65;;;;;;;-0.02;100.00;100056.91;5034924;28;20034;-75
2022/12/13 11:15:32;;;;;;;11.63;5.15;;;;;;;0.08;100.00;100055.94;5001598;28;20032;-76
2022/12/13 11:18:04;;;;;;;12.65;6.28;;;;;;;0.01;100.00;100056.84;5017564;28;20029;-75
2022/12/13 11:20:33;;;;;;;;;;;;;;;-0.22;100.00;100054.00;5035793;28;20025;-75
2022/12/13 11:23:10;;;;;;;11.80;5.60;;;;;;;-0.34;100.00;100043.41;5018006;28;19960;-75
2022/12/13 11:25:39;;;;;;;10.43;5.97;;;;;;;-0.59;100.00;100046.59;5017925;28;20021;-75